createdAt,value
2023-02-05T00:00:00.783Z,4.3
2023-02-05T00:01:00.784Z,6.1000000000000005
2023-02-05T00:02:00.890Z,7.300000000000001
2023-02-05T00:03:00.899Z,9.8
2023-02-05T00:04:00.802Z,8.5
2023-02-05T00:05:00.790Z,8.5
2023-02-05T00:06:00.791Z,8.5
2023-02-05T00:07:00.844Z,5.300000000000001
2023-02-05T00:08:00.796Z,5.6000000000000005
2023-02-05T00:09:00.793Z,10.200000000000001
2023-02-05T00:10:00.785Z,8.200000000000001
2023-02-05T00:11:00.792Z,5.1000000000000005
2023-02-05T00:12:00.791Z,0
2023-02-05T00:13:00.790Z,0
2023-02-05T00:14:00.779Z,0
2023-02-05T00:15:00.795Z,0
2023-02-05T00:16:00.782Z,0
2023-02-05T00:17:00.801Z,0
2023-02-05T00:18:00.828Z,0
2023-02-05T00:19:00.786Z,0
2023-02-05T00:20:00.793Z,0
2023-02-05T00:21:00.804Z,5.300000000000001
2023-02-05T00:22:00.783Z,3.8000000000000003
2023-02-05T00:23:00.794Z,4.2
2023-02-05T00:24:00.817Z,4.3
2023-02-05T00:25:00.793Z,4.9
2023-02-05T00:26:00.809Z,6.2
2023-02-05T00:27:00.792Z,5.6000000000000005
2023-02-05T00:28:00.822Z,4.4
2023-02-05T00:29:00.801Z,1.3
2023-02-05T00:30:00.800Z,0
2023-02-05T00:31:00.937Z,0
2023-02-05T00:32:00.797Z,0
2023-02-05T00:33:00.807Z,0
2023-02-05T00:34:00.827Z,0
2023-02-05T00:35:00.804Z,0
2023-02-05T00:36:00.803Z,0
2023-02-05T00:37:00.795Z,9
2023-02-05T00:38:00.814Z,15.3
2023-02-05T00:39:00.790Z,6.5
2023-02-05T00:40:00.811Z,7.5
2023-02-05T00:41:00.838Z,5.4
2023-02-05T00:42:00.810Z,2.6
2023-02-05T00:43:00.810Z,7.9
2023-02-05T00:44:00.820Z,6.1000000000000005
2023-02-05T00:45:00.797Z,4.1000000000000005
2023-02-05T00:46:00.917Z,5.7
2023-02-05T00:47:00.811Z,3.5
2023-02-05T00:48:00.805Z,4.1000000000000005
2023-02-05T00:49:00.795Z,9.600000000000001
2023-02-05T00:50:00.824Z,14
2023-02-05T00:51:00.794Z,12.5
2023-02-05T00:52:00.802Z,13.8
2023-02-05T00:53:00.809Z,4.4
2023-02-05T00:54:00.795Z,6.800000000000001
2023-02-05T00:55:00.799Z,0
2023-02-05T00:56:00.807Z,12.600000000000001
2023-02-05T00:57:00.801Z,5.5
2023-02-05T00:58:00.803Z,4.6000000000000005
2023-02-05T00:59:00.799Z,4.800000000000001
2023-02-05T01:00:00.802Z,6.5
2023-02-05T01:01:00.879Z,3.7
2023-02-05T01:02:00.792Z,3.1
2023-02-05T01:03:00.815Z,1.8
2023-02-05T01:04:00.810Z,8.700000000000001
2023-02-05T01:05:00.808Z,8.6
2023-02-05T01:06:00.814Z,6.1000000000000005
2023-02-05T01:07:00.820Z,8.8
2023-02-05T01:08:00.805Z,0.8
2023-02-05T01:09:00.819Z,8.6
2023-02-05T01:10:00.809Z,5.1000000000000005
2023-02-05T01:11:00.803Z,8.9
2023-02-05T01:12:00.795Z,0.7000000000000001
2023-02-05T01:13:00.805Z,8.1
2023-02-05T01:14:00.793Z,9.4
2023-02-05T01:15:00.822Z,5.6000000000000005
2023-02-05T01:16:00.795Z,1.2000000000000002
2023-02-05T01:17:00.811Z,8.8
2023-02-05T01:18:00.846Z,4.9
2023-02-05T01:19:00.800Z,9.4
2023-02-05T01:20:00.808Z,6.300000000000001
2023-02-05T01:21:00.804Z,12.100000000000001
2023-02-05T01:22:00.824Z,4.6000000000000005
2023-02-05T01:23:00.803Z,6.1000000000000005
2023-02-05T01:24:00.810Z,0.5
2023-02-05T01:25:00.811Z,3
2023-02-05T01:26:00.814Z,4.7
2023-02-05T01:27:00.824Z,3.1
2023-02-05T01:28:00.864Z,4.9
2023-02-05T01:29:00.808Z,5.4
2023-02-05T01:30:00.817Z,7.2
2023-02-05T01:31:00.905Z,6.2
2023-02-05T01:32:00.819Z,7.6000000000000005
2023-02-05T01:33:00.821Z,6.2
2023-02-05T01:34:00.815Z,7.800000000000001
2023-02-05T01:35:00.811Z,6.2
2023-02-05T01:36:00.817Z,8.4
2023-02-05T01:37:00.812Z,4.7
2023-02-05T01:38:00.839Z,4.4
2023-02-05T01:39:00.823Z,6.9
2023-02-05T01:40:00.805Z,4.7
2023-02-05T01:41:00.822Z,4.1000000000000005
2023-02-05T01:42:00.811Z,4.4
2023-02-05T01:43:00.799Z,4
2023-02-05T01:44:00.813Z,2.8000000000000003
2023-02-05T01:45:00.818Z,0
2023-02-05T01:46:00.905Z,3.5
2023-02-05T01:47:00.820Z,9.200000000000001
2023-02-05T01:48:00.806Z,2.3000000000000003
2023-02-05T01:49:00.812Z,6.300000000000001
2023-02-05T01:50:00.806Z,4.7
2023-02-05T01:51:00.807Z,4.6000000000000005
2023-02-05T01:52:00.808Z,1
2023-02-05T01:53:00.804Z,9.5
2023-02-05T01:54:00.823Z,5.1000000000000005
2023-02-05T01:55:00.819Z,5.4
2023-02-05T01:56:00.812Z,5.4
2023-02-05T01:57:00.804Z,7.9
2023-02-05T01:58:00.799Z,11
2023-02-05T01:59:00.806Z,8.4
2023-02-05T02:00:00.808Z,5.300000000000001
2023-02-05T02:01:00.808Z,5.2
2023-02-05T02:02:00.816Z,6.1000000000000005
2023-02-05T02:03:00.810Z,9.9
2023-02-05T02:04:00.829Z,8.700000000000001
2023-02-05T02:05:00.811Z,9.5
2023-02-05T02:06:00.816Z,7.300000000000001
2023-02-05T02:07:00.803Z,10
2023-02-05T02:08:00.804Z,12.600000000000001
2023-02-05T02:09:00.799Z,7.9
2023-02-05T02:10:00.827Z,13.3
2023-02-05T02:11:00.800Z,6.1000000000000005
2023-02-05T02:12:00.810Z,5.4
2023-02-05T02:13:00.806Z,11.600000000000001
2023-02-05T02:14:00.818Z,6.4
2023-02-05T02:15:00.826Z,4.7
2023-02-05T02:16:00.909Z,1.6
2023-02-05T02:17:00.809Z,8.200000000000001
2023-02-05T02:18:00.810Z,8.3
2023-02-05T02:19:00.845Z,8
2023-02-05T02:20:00.816Z,7.6000000000000005
2023-02-05T02:21:00.806Z,4.1000000000000005
2023-02-05T02:22:00.821Z,7.9
2023-02-05T02:23:00.809Z,3
2023-02-05T02:24:00.802Z,4.2
2023-02-05T02:25:00.808Z,1.5
2023-02-05T02:26:00.825Z,12.3
2023-02-05T02:27:00.854Z,8.4
2023-02-05T02:28:00.849Z,3.6
2023-02-05T02:29:00.808Z,4.3
2023-02-05T02:30:00.816Z,9.4
2023-02-05T02:31:00.924Z,6.5
2023-02-05T02:32:00.805Z,6
2023-02-05T02:33:00.820Z,12.4
2023-02-05T02:34:00.835Z,9.700000000000001
2023-02-05T02:35:00.802Z,4.800000000000001
2023-02-05T02:36:00.817Z,3.1
2023-02-05T02:37:00.805Z,1.4000000000000001
2023-02-05T02:38:00.811Z,3.7
2023-02-05T02:39:00.818Z,3.4000000000000004
2023-02-05T02:40:00.809Z,2.3000000000000003
2023-02-05T02:41:00.816Z,6
2023-02-05T02:42:00.891Z,10.4
2023-02-05T02:43:00.815Z,8.8
2023-02-05T02:44:00.810Z,7
2023-02-05T02:45:00.810Z,8.200000000000001
2023-02-05T02:46:00.816Z,5.800000000000001
2023-02-05T02:47:00.802Z,7.4
2023-02-05T02:48:00.808Z,4.7
2023-02-05T02:49:00.826Z,5.5
2023-02-05T02:50:00.817Z,2
2023-02-05T02:51:00.815Z,2.8000000000000003
2023-02-05T02:52:00.811Z,6.2
2023-02-05T02:53:00.817Z,7
2023-02-05T02:54:00.815Z,7
2023-02-05T02:55:00.811Z,4.7
2023-02-05T02:56:00.810Z,4.4
2023-02-05T02:57:00.840Z,6.1000000000000005
2023-02-05T02:58:00.843Z,8.3
2023-02-05T02:59:00.839Z,8.1
2023-02-05T03:00:00.817Z,9.4
2023-02-05T03:01:00.928Z,7.300000000000001
2023-02-05T03:02:00.820Z,4.4
2023-02-05T03:03:00.822Z,0
2023-02-05T03:04:00.833Z,0
2023-02-05T03:05:00.813Z,1
2023-02-05T03:06:00.811Z,4.7
2023-02-05T03:07:00.813Z,0
2023-02-05T03:08:00.815Z,4
2023-02-05T03:09:00.815Z,6.300000000000001
2023-02-05T03:10:00.819Z,7.7
2023-02-05T03:11:00.818Z,2
2023-02-05T03:12:00.834Z,0
2023-02-05T03:13:00.819Z,7.800000000000001
2023-02-05T03:14:00.845Z,6.5
2023-02-05T03:15:00.814Z,7
2023-02-05T03:16:00.921Z,6.5
2023-02-05T03:17:00.818Z,0.6000000000000001
2023-02-05T03:18:00.824Z,7.9
2023-02-05T03:19:00.828Z,3.6
2023-02-05T03:20:00.810Z,2.2
2023-02-05T03:21:00.813Z,5.7
2023-02-05T03:22:00.810Z,5.9
2023-02-05T03:23:00.821Z,5.1000000000000005
2023-02-05T03:24:00.830Z,4.7
2023-02-05T03:25:00.821Z,7.7
2023-02-05T03:26:00.818Z,5.7
2023-02-05T03:27:00.817Z,8.4
2023-02-05T03:28:00.848Z,8.700000000000001
2023-02-05T03:29:00.816Z,4.7
2023-02-05T03:30:00.857Z,6.2
2023-02-05T03:31:00.854Z,11.200000000000001
2023-02-05T03:32:00.814Z,7.2
2023-02-05T03:33:00.825Z,9.5
2023-02-05T03:34:00.822Z,6.5
2023-02-05T03:35:00.813Z,5.4
2023-02-05T03:36:00.816Z,8.8
2023-02-05T03:37:00.838Z,7.6000000000000005
2023-02-05T03:38:00.820Z,8.3
2023-02-05T03:39:00.822Z,6.5
2023-02-05T03:40:00.822Z,10.700000000000001
2023-02-05T03:41:00.818Z,6.2
2023-02-05T03:42:00.815Z,2.8000000000000003
2023-02-05T03:43:00.824Z,2.3000000000000003
2023-02-05T03:44:00.830Z,5.300000000000001
2023-02-05T03:45:00.829Z,5.1000000000000005
2023-02-05T03:46:00.936Z,4
2023-02-05T03:47:00.847Z,0
2023-02-05T03:48:00.816Z,8.3
2023-02-05T03:49:00.842Z,5.9
2023-02-05T03:50:00.839Z,10.9
2023-02-05T03:51:00.828Z,10.5
2023-02-05T03:52:00.831Z,3.6
2023-02-05T03:53:00.813Z,2
2023-02-05T03:54:00.830Z,2.9000000000000004
2023-02-05T03:55:00.812Z,6.300000000000001
2023-02-05T03:56:00.821Z,5.5
2023-02-05T03:57:00.808Z,11
2023-02-05T03:58:00.818Z,0
2023-02-05T03:59:00.836Z,6.800000000000001
2023-02-05T04:00:00.820Z,6.800000000000001
2023-02-05T04:01:00.861Z,6.5
2023-02-05T04:02:00.968Z,7.2
2023-02-05T04:03:00.833Z,5.300000000000001
2023-02-05T04:04:00.824Z,4.4
2023-02-05T04:05:00.824Z,3.2
2023-02-05T04:06:00.824Z,1.3
2023-02-05T04:07:00.834Z,2.7
2023-02-05T04:08:00.847Z,8.8
2023-02-05T04:09:00.827Z,9
2023-02-05T04:10:00.818Z,7.7
2023-02-05T04:11:00.814Z,2.7
2023-02-05T04:12:00.821Z,1.9000000000000001
2023-02-05T04:13:00.819Z,5.4
2023-02-05T04:14:00.809Z,0.7000000000000001
2023-02-05T04:15:00.821Z,7
2023-02-05T04:16:00.821Z,8
2023-02-05T04:17:00.829Z,6.800000000000001
2023-02-05T04:18:00.851Z,2.4000000000000004
2023-02-05T04:19:00.828Z,4.4
2023-02-05T04:20:00.822Z,3.2
2023-02-05T04:21:00.821Z,4.6000000000000005
2023-02-05T04:22:00.831Z,6.300000000000001
2023-02-05T04:23:00.814Z,4.6000000000000005
2023-02-05T04:24:00.924Z,7
2023-02-05T04:25:00.819Z,6.1000000000000005
2023-02-05T04:26:00.818Z,3.6
2023-02-05T04:27:00.836Z,6.300000000000001
2023-02-05T04:28:00.859Z,2.1
2023-02-05T04:29:00.832Z,0
2023-02-05T04:30:00.812Z,3.1
2023-02-05T04:31:00.881Z,0
2023-02-05T04:32:00.842Z,4.1000000000000005
2023-02-05T04:33:00.827Z,3.5
2023-02-05T04:34:00.849Z,5.300000000000001
2023-02-05T04:35:00.826Z,1.5
2023-02-05T04:36:00.821Z,0
2023-02-05T04:37:00.835Z,0
2023-02-05T04:38:00.842Z,2.8000000000000003
2023-02-05T04:39:00.823Z,4.9
2023-02-05T04:40:00.837Z,5.4
2023-02-05T04:41:00.824Z,5.300000000000001
2023-02-05T04:42:00.830Z,4.800000000000001
2023-02-05T04:43:00.824Z,3.4000000000000004
2023-02-05T04:44:00.825Z,6.800000000000001
2023-02-05T04:45:00.833Z,4.5
2023-02-05T04:46:00.913Z,5.4
2023-02-05T04:47:00.823Z,7
2023-02-05T04:48:00.845Z,1.9000000000000001
2023-02-05T04:49:00.824Z,0
2023-02-05T04:50:00.863Z,0
2023-02-05T04:51:00.822Z,6.800000000000001
2023-02-05T04:52:00.838Z,1.6
2023-02-05T04:53:00.830Z,6
2023-02-05T04:54:00.825Z,0.4
2023-02-05T04:55:00.826Z,4.800000000000001
2023-02-05T04:56:00.821Z,3
2023-02-05T04:57:00.836Z,5.4
2023-02-05T04:58:00.841Z,7.4
2023-02-05T04:59:00.826Z,3.7
2023-02-05T05:00:00.833Z,3.5
2023-02-05T05:01:00.849Z,4.6000000000000005
2023-02-05T05:02:00.840Z,1.1
2023-02-05T05:03:00.830Z,5.4
2023-02-05T05:04:00.838Z,2.9000000000000004
2023-02-05T05:05:00.824Z,5
2023-02-05T05:06:00.858Z,0
2023-02-05T05:07:00.830Z,1.1
2023-02-05T05:08:00.836Z,6.5
2023-02-05T05:09:00.920Z,9.200000000000001
2023-02-05T05:10:00.887Z,3.7
2023-02-05T05:11:00.855Z,5.9
2023-02-05T05:12:00.824Z,3.8000000000000003
2023-02-05T05:13:00.836Z,5.6000000000000005
2023-02-05T05:14:00.837Z,8.6
2023-02-05T05:15:00.832Z,6
2023-02-05T05:16:00.833Z,4.800000000000001
2023-02-05T05:17:00.831Z,2.5
2023-02-05T05:18:00.827Z,5.2
2023-02-05T05:19:00.826Z,6.6000000000000005
2023-02-05T05:20:00.836Z,10.200000000000001
2023-02-05T05:21:00.842Z,6.5
2023-02-05T05:22:00.864Z,8
2023-02-05T05:23:00.835Z,7.300000000000001
2023-02-05T05:24:00.845Z,7.7
2023-02-05T05:25:00.834Z,6.7
2023-02-05T05:26:00.839Z,6.6000000000000005
2023-02-05T05:27:00.831Z,7.5
2023-02-05T05:28:00.834Z,6.7
2023-02-05T05:29:00.827Z,7.1000000000000005
2023-02-05T05:30:00.835Z,6
2023-02-05T05:31:00.930Z,4.1000000000000005
2023-02-05T05:32:00.894Z,4.2
2023-02-05T05:33:00.851Z,0
2023-02-05T05:34:00.838Z,4.4
2023-02-05T05:35:00.838Z,5.9
2023-02-05T05:36:00.851Z,2.9000000000000004
2023-02-05T05:37:00.829Z,5
2023-02-05T05:38:00.853Z,3.4000000000000004
2023-02-05T05:39:00.839Z,4.7
2023-02-05T05:40:00.836Z,4.5
2023-02-05T05:41:00.833Z,6.800000000000001
2023-02-05T05:42:00.838Z,5.7
2023-02-05T05:43:00.833Z,4.6000000000000005
2023-02-05T05:44:00.839Z,6.300000000000001
2023-02-05T05:45:00.850Z,5.5
2023-02-05T05:46:00.862Z,8.1
2023-02-05T05:47:00.838Z,5.5
2023-02-05T05:48:00.842Z,3.8000000000000003
2023-02-05T05:49:00.835Z,6.2
2023-02-05T05:50:00.828Z,7.1000000000000005
2023-02-05T05:51:00.845Z,5.300000000000001
2023-02-05T05:52:00.856Z,5.300000000000001
2023-02-05T05:53:00.840Z,6.2
2023-02-05T05:54:00.878Z,6.7
2023-02-05T05:55:00.830Z,9
2023-02-05T05:56:00.859Z,8.1
2023-02-05T05:57:00.844Z,4.6000000000000005
2023-02-05T05:58:00.845Z,5.2
2023-02-05T05:59:00.846Z,5.300000000000001
2023-02-05T06:00:00.836Z,7.4
2023-02-05T06:01:00.859Z,2.2
2023-02-05T06:02:00.832Z,4.6000000000000005
2023-02-05T06:03:00.845Z,5.6000000000000005
2023-02-05T06:04:02.993Z,3.4000000000000004
2023-02-05T06:05:00.841Z,4.800000000000001
2023-02-05T06:06:00.867Z,4.3
2023-02-05T06:07:00.842Z,6.9
2023-02-05T06:08:00.830Z,6.7
2023-02-05T06:09:00.855Z,4.2
2023-02-05T06:10:00.875Z,6
2023-02-05T06:11:00.828Z,2.2
2023-02-05T06:12:00.834Z,5.6000000000000005
2023-02-05T06:13:00.835Z,3.1
2023-02-05T06:14:00.840Z,3.7
2023-02-05T06:15:00.841Z,6.1000000000000005
2023-02-05T06:16:00.882Z,7.2
2023-02-05T06:17:00.823Z,7.2
2023-02-05T06:18:00.837Z,6.1000000000000005
2023-02-05T06:19:00.854Z,5.6000000000000005
2023-02-05T06:20:00.832Z,3.6
2023-02-05T06:21:00.827Z,4.5
2023-02-05T06:22:00.832Z,5.800000000000001
2023-02-05T06:23:00.840Z,2.6
2023-02-05T06:24:00.843Z,3.8000000000000003
2023-02-05T06:25:00.841Z,2.7
2023-02-05T06:26:00.871Z,5.5
2023-02-05T06:27:00.876Z,5.9
2023-02-05T06:28:00.892Z,5.5
2023-02-05T06:29:00.843Z,5
2023-02-05T06:30:00.843Z,2.1
2023-02-05T06:31:00.976Z,4.2
2023-02-05T06:32:00.905Z,6.9
2023-02-05T06:33:00.846Z,2.7
2023-02-05T06:34:00.860Z,4.5
2023-02-05T06:35:00.838Z,6.7
2023-02-05T06:36:00.843Z,2
2023-02-05T06:37:00.844Z,5.4
2023-02-05T06:38:00.855Z,6.1000000000000005
2023-02-05T06:39:00.833Z,6.7
2023-02-05T06:40:00.860Z,5.800000000000001
2023-02-05T06:41:00.843Z,4.6000000000000005
2023-02-05T06:42:00.895Z,4.9
2023-02-05T06:43:00.846Z,5.5
2023-02-05T06:44:00.859Z,4.4
2023-02-05T06:45:00.850Z,2.4000000000000004
2023-02-05T06:46:00.945Z,6.7
2023-02-05T06:47:00.840Z,6.300000000000001
2023-02-05T06:48:00.839Z,5.1000000000000005
2023-02-05T06:49:00.838Z,4.800000000000001
2023-02-05T06:50:00.852Z,7
2023-02-05T06:51:00.852Z,2.6
2023-02-05T06:52:00.848Z,3.6
2023-02-05T06:53:00.861Z,8.3
2023-02-05T06:54:00.870Z,3.8000000000000003
2023-02-05T06:55:00.854Z,5.4
2023-02-05T06:56:00.855Z,2.6
2023-02-05T06:57:00.851Z,6.7
2023-02-05T06:58:00.887Z,2.8000000000000003
2023-02-05T06:59:00.850Z,0
2023-02-05T07:00:00.865Z,5.300000000000001
2023-02-05T07:01:00.854Z,4.7
2023-02-05T07:02:00.865Z,4
2023-02-05T07:03:00.901Z,3.4000000000000004
2023-02-05T07:04:00.849Z,3.7
2023-02-05T07:05:00.848Z,3.2
2023-02-05T07:06:00.856Z,5.1000000000000005
2023-02-05T07:07:00.855Z,5.2
2023-02-05T07:08:00.859Z,2.9000000000000004
2023-02-05T07:09:00.855Z,5.9
2023-02-05T07:10:00.856Z,8.5
2023-02-05T07:11:00.866Z,7.300000000000001
2023-02-05T07:12:00.846Z,6.7
2023-02-05T07:13:00.860Z,8.5
2023-02-05T07:14:00.891Z,5.2
2023-02-05T07:15:00.850Z,7.300000000000001
2023-02-05T07:16:00.884Z,5.6000000000000005
2023-02-05T07:17:00.862Z,3.4000000000000004
2023-02-05T07:18:00.876Z,6.7
2023-02-05T07:19:00.855Z,5.6000000000000005
2023-02-05T07:20:00.857Z,8
2023-02-05T07:21:00.854Z,7.2
2023-02-05T07:22:00.873Z,6.7
2023-02-05T07:23:00.861Z,5.7
2023-02-05T07:24:00.875Z,5.4
2023-02-05T07:25:02.668Z,5.800000000000001
2023-02-05T07:26:00.849Z,4.3
2023-02-05T07:27:00.859Z,8
2023-02-05T07:28:00.947Z,5.300000000000001
2023-02-05T07:29:00.871Z,4.6000000000000005
2023-02-05T07:30:00.880Z,4.6000000000000005
2023-02-05T07:31:01.003Z,7.1000000000000005
2023-02-05T07:32:00.900Z,7.300000000000001
2023-02-05T07:33:00.870Z,6.1000000000000005
2023-02-05T07:34:00.875Z,3.3000000000000003
2023-02-05T07:35:00.875Z,4.1000000000000005
2023-02-05T07:36:00.871Z,5.7
2023-02-05T07:37:00.855Z,6.7
2023-02-05T07:38:00.876Z,4.800000000000001
2023-02-05T07:39:00.867Z,3.6
2023-02-05T07:40:00.858Z,5.1000000000000005
2023-02-05T07:41:00.867Z,6.7
2023-02-05T07:42:00.886Z,3.7
2023-02-05T07:43:00.865Z,6.4
2023-02-05T07:44:00.860Z,4.9
2023-02-05T07:45:00.854Z,6.800000000000001
2023-02-05T07:46:00.886Z,7.9
2023-02-05T07:47:00.866Z,6.6000000000000005
2023-02-05T07:48:00.859Z,6.9
2023-02-05T07:49:00.873Z,3.6
2023-02-05T07:50:00.846Z,6.1000000000000005
2023-02-05T07:51:00.858Z,8.1
2023-02-05T07:52:00.847Z,3.7
2023-02-05T07:53:00.863Z,1.6
2023-02-05T07:54:00.879Z,5.6000000000000005
2023-02-05T07:55:00.870Z,4.7
2023-02-05T07:56:00.852Z,3.6
2023-02-05T07:57:00.854Z,1.8
2023-02-05T07:58:00.867Z,6.6000000000000005
2023-02-05T07:59:00.870Z,1.9000000000000001
2023-02-05T08:00:00.860Z,6.5
2023-02-05T08:01:00.995Z,3.8000000000000003
2023-02-05T08:02:00.881Z,0
2023-02-05T08:03:00.857Z,0
2023-02-05T08:04:00.887Z,4.2
2023-02-05T08:05:00.854Z,3.8000000000000003
2023-02-05T08:06:00.854Z,5.800000000000001
2023-02-05T08:07:00.863Z,5.5
2023-02-05T08:08:00.866Z,1.5
2023-02-05T08:09:00.863Z,2
2023-02-05T08:10:00.876Z,5.1000000000000005
2023-02-05T08:11:00.867Z,6.7
2023-02-05T08:12:00.861Z,4.1000000000000005
2023-02-05T08:13:00.865Z,5.4
2023-02-05T08:14:00.875Z,6.4
2023-02-05T08:15:00.861Z,1.6
2023-02-05T08:16:00.891Z,2.6
2023-02-05T08:17:00.868Z,4.5
2023-02-05T08:18:00.881Z,2.9000000000000004
2023-02-05T08:19:00.854Z,0
2023-02-05T08:20:00.871Z,0
2023-02-05T08:21:00.855Z,3.7
2023-02-05T08:22:00.892Z,5
2023-02-05T08:23:00.867Z,3.8000000000000003
2023-02-05T08:24:00.876Z,0
2023-02-05T08:25:00.858Z,0
2023-02-05T08:26:00.902Z,0
2023-02-05T08:27:00.878Z,0
2023-02-05T08:28:00.924Z,0
2023-02-05T08:29:00.871Z,0
2023-02-05T08:30:00.867Z,0
2023-02-05T08:31:00.889Z,2
2023-02-05T08:32:00.857Z,1.7000000000000002
2023-02-05T08:33:00.862Z,4.6000000000000005
2023-02-05T08:34:00.892Z,3.5
2023-02-05T08:35:00.864Z,1.8
2023-02-05T08:36:00.863Z,0
2023-02-05T08:37:00.863Z,2.3000000000000003
2023-02-05T08:38:00.883Z,4.9
2023-02-05T08:39:00.860Z,1.5
2023-02-05T08:40:00.881Z,7
2023-02-05T08:41:00.857Z,5.1000000000000005
2023-02-05T08:42:00.874Z,5.4
2023-02-05T08:43:00.859Z,6.9
2023-02-05T08:44:00.857Z,2.6
2023-02-05T08:45:00.862Z,4.3
2023-02-05T08:46:00.952Z,2.5
2023-02-05T08:47:00.864Z,0
2023-02-05T08:48:00.872Z,0
2023-02-05T08:49:00.878Z,3.9000000000000004
2023-02-05T08:50:00.880Z,1.1
2023-02-05T08:51:00.854Z,0
2023-02-05T08:52:00.868Z,0
2023-02-05T08:53:00.889Z,0
2023-02-05T08:54:00.867Z,0
2023-02-05T08:55:00.878Z,5.7
2023-02-05T08:56:00.861Z,4.1000000000000005
2023-02-05T08:57:00.879Z,5.4
2023-02-05T08:58:00.874Z,0
2023-02-05T08:59:00.876Z,5
2023-02-05T09:00:00.870Z,3.6
2023-02-05T09:01:00.924Z,0.7000000000000001
2023-02-05T09:02:00.856Z,0
2023-02-05T09:03:00.868Z,3.2
2023-02-05T09:04:01.017Z,4.800000000000001
2023-02-05T09:05:08.713Z,4.4
2023-02-05T09:06:00.905Z,7.4
2023-02-05T09:07:00.873Z,1.9000000000000001
2023-02-05T09:08:00.883Z,3.1
2023-02-05T09:09:00.864Z,1.2000000000000002
2023-02-05T09:10:00.873Z,8.1
2023-02-05T09:11:00.874Z,3.6
2023-02-05T09:12:00.878Z,4.6000000000000005
2023-02-05T09:13:00.874Z,5.1000000000000005
2023-02-05T09:14:00.882Z,6.6000000000000005
2023-02-05T09:15:00.869Z,7.7
2023-02-05T09:16:00.902Z,14.4
2023-02-05T09:17:00.874Z,5
2023-02-05T09:18:00.886Z,10.100000000000001
2023-02-05T09:19:00.888Z,5.2
2023-02-05T09:20:00.874Z,0
2023-02-05T09:21:00.873Z,2.4000000000000004
2023-02-05T09:22:00.911Z,1.9000000000000001
2023-02-05T09:23:00.869Z,5.6000000000000005
2023-02-05T09:24:00.885Z,6.6000000000000005
2023-02-05T09:25:00.882Z,5.6000000000000005
2023-02-05T09:26:00.893Z,5.300000000000001
2023-02-05T09:27:00.890Z,9.1
2023-02-05T09:28:00.903Z,4
2023-02-05T09:29:00.876Z,0
2023-02-05T09:30:00.913Z,7.4
2023-02-05T09:31:01.048Z,10
2023-02-05T09:32:00.905Z,0.30000000000000004
2023-02-05T09:33:00.885Z,0
2023-02-05T09:34:00.895Z,2
2023-02-05T09:35:00.889Z,3.3000000000000003
2023-02-05T09:36:00.884Z,0
2023-02-05T09:37:00.878Z,4.7
2023-02-05T09:38:00.914Z,1.9000000000000001
2023-02-05T09:39:15.192Z,7
2023-02-05T09:41:00.894Z,9.4
2023-02-05T09:42:00.877Z,10.4
2023-02-05T09:43:00.888Z,7.2
2023-02-05T09:44:00.884Z,2.2
2023-02-05T09:45:00.898Z,0
2023-02-05T09:46:00.954Z,2.8000000000000003
2023-02-05T09:47:00.904Z,0
2023-02-05T09:48:00.907Z,6.7
2023-02-05T09:49:00.897Z,4.6000000000000005
2023-02-05T09:50:00.886Z,11
2023-02-05T09:51:00.894Z,7
2023-02-05T09:52:00.888Z,6.1000000000000005
2023-02-05T09:53:00.892Z,8.3
2023-02-05T09:54:00.912Z,10.100000000000001
2023-02-05T09:55:00.885Z,14.8
2023-02-05T09:56:00.890Z,10.4
2023-02-05T09:57:00.887Z,6.2
2023-02-05T09:58:00.907Z,5.300000000000001
2023-02-05T09:59:00.907Z,2.6
2023-02-05T10:00:00.885Z,5.2
2023-02-05T10:01:00.947Z,4.6000000000000005
2023-02-05T10:02:00.880Z,4.7
2023-02-05T10:03:00.891Z,3.7
2023-02-05T10:04:00.979Z,2.9000000000000004
2023-02-05T10:05:00.885Z,6.1000000000000005
2023-02-05T10:06:00.891Z,5.5
2023-02-05T10:07:00.924Z,5.6000000000000005
2023-02-05T10:08:00.882Z,4.7
2023-02-05T10:09:00.891Z,4.800000000000001
2023-02-05T10:10:00.945Z,2.6
2023-02-05T10:11:00.894Z,9.9
2023-02-05T10:12:00.900Z,0
2023-02-05T10:13:00.898Z,0
2023-02-05T10:14:00.889Z,10.600000000000001
2023-02-05T10:15:00.907Z,14.600000000000001
2023-02-05T10:16:00.969Z,13.600000000000001
2023-02-05T10:17:00.884Z,17.2
2023-02-05T10:18:00.896Z,9.8
2023-02-05T10:19:00.883Z,10.100000000000001
2023-02-05T10:20:00.886Z,7.6000000000000005
2023-02-05T10:21:00.900Z,9.600000000000001
2023-02-05T10:22:00.893Z,9.200000000000001
2023-02-05T10:23:00.881Z,8.200000000000001
2023-02-05T10:24:00.904Z,12
2023-02-05T10:25:00.913Z,13.100000000000001
2023-02-05T10:26:00.929Z,20.700000000000003
2023-02-05T10:27:00.888Z,18.2
2023-02-05T10:28:01.009Z,14
2023-02-05T10:29:00.886Z,9.600000000000001
2023-02-05T10:30:00.904Z,10.200000000000001
2023-02-05T10:31:00.982Z,25.8
2023-02-05T10:32:00.897Z,14.3
2023-02-05T10:33:00.903Z,17.6
2023-02-05T10:34:00.902Z,21.1
2023-02-05T10:35:00.897Z,15.100000000000001
2023-02-05T10:36:00.902Z,17.7
2023-02-05T10:37:00.894Z,15.5
2023-02-05T10:38:00.916Z,16.400000000000002
2023-02-05T10:39:00.903Z,10.9
2023-02-05T10:40:00.909Z,14.5
2023-02-05T10:41:00.960Z,7.800000000000001
2023-02-05T10:42:00.931Z,18.8
2023-02-05T10:43:00.892Z,12.700000000000001
2023-02-05T10:44:00.893Z,13.100000000000001
2023-02-05T10:45:00.902Z,18.7
2023-02-05T10:46:00.958Z,17.1
2023-02-05T10:47:00.912Z,15.200000000000001
2023-02-05T10:48:00.900Z,14.5
2023-02-05T10:49:00.916Z,14.200000000000001
2023-02-05T10:50:00.900Z,15.3
2023-02-05T10:51:00.918Z,19.8
2023-02-05T10:52:00.906Z,28.400000000000002
2023-02-05T10:53:00.893Z,16.1
2023-02-05T10:54:00.923Z,14.3
2023-02-05T10:55:00.900Z,12.700000000000001
2023-02-05T10:56:00.906Z,12.200000000000001
2023-02-05T10:57:00.905Z,5.800000000000001
2023-02-05T10:58:00.927Z,5.4
2023-02-05T10:59:00.914Z,19
2023-02-05T11:00:00.962Z,21
2023-02-05T11:01:00.906Z,16.7
2023-02-05T11:02:01.016Z,12.5
2023-02-05T11:03:00.986Z,14
2023-02-05T11:04:00.901Z,13.600000000000001
2023-02-05T11:05:00.908Z,18.8
2023-02-05T11:06:00.901Z,15.5
2023-02-05T11:07:00.903Z,20.700000000000003
2023-02-05T11:08:00.918Z,21.900000000000002
2023-02-05T11:09:00.909Z,14.3
2023-02-05T11:10:00.903Z,17.1
2023-02-05T11:11:00.904Z,18.7
2023-02-05T11:12:00.907Z,11.9
2023-02-05T11:13:00.909Z,12
2023-02-05T11:14:00.930Z,11.200000000000001
2023-02-05T11:15:00.912Z,4.6000000000000005
2023-02-05T11:16:00.995Z,17.400000000000002
2023-02-05T11:17:00.910Z,17.3
2023-02-05T11:18:00.916Z,12.3
2023-02-05T11:19:00.910Z,8.1
2023-02-05T11:20:00.911Z,14.8
2023-02-05T11:21:00.904Z,14.600000000000001
2023-02-05T11:22:00.923Z,15.8
2023-02-05T11:23:00.914Z,17.8
2023-02-05T11:24:00.933Z,5.800000000000001
2023-02-05T11:25:00.927Z,8.6
2023-02-05T11:26:00.924Z,7.300000000000001
2023-02-05T11:27:00.936Z,8.8
2023-02-05T11:28:00.996Z,7.5
2023-02-05T11:29:00.914Z,6
2023-02-05T11:30:00.925Z,17.1
2023-02-05T11:31:01.326Z,22.1
2023-02-05T11:32:01.051Z,28.3
2023-02-05T11:33:00.927Z,19.8
2023-02-05T11:34:00.916Z,27.200000000000003
2023-02-05T11:35:00.913Z,18
2023-02-05T11:36:00.929Z,19.6
2023-02-05T11:37:00.931Z,14.9
2023-02-05T11:38:00.918Z,14.8
2023-02-05T11:39:00.912Z,12.100000000000001
2023-02-05T11:40:00.923Z,11.4
2023-02-05T11:41:00.925Z,19.3
2023-02-05T11:42:00.923Z,12.5
2023-02-05T11:43:00.907Z,9.8
2023-02-05T11:44:00.919Z,11.8
2023-02-05T11:45:00.919Z,9.600000000000001
2023-02-05T11:46:00.947Z,3.7
2023-02-05T11:47:00.919Z,7.7
2023-02-05T11:48:00.908Z,7.5
2023-02-05T11:49:00.945Z,8.4
2023-02-05T11:50:00.908Z,13
2023-02-05T11:51:00.915Z,12.4
2023-02-05T11:52:00.912Z,15
2023-02-05T11:53:00.919Z,15.600000000000001